»·PEaware :: N653AW KSJC-KSBP

N653AW :: KSJC-KSBP

FLIGHT INFORMATION

Flight Status: Arrived
Operator: Privately registered:
United States
More flights under this callsign
Pilot: Sergei F. (8485)
Aircraft: AIRBUS A320
(A320)
More flights by this aircraft type
Origin: KSJC Mineta San Jose Intl
United States
Destination: KSBP San Luis Co Regl
United States
More flights between these airports :: More routes between these airports
Route: SJC3 PXN V113 MQO
File this flight plan on PilotEdge
Remarks:
Altitude:
(Current/Filed)
23,000ft
Speed:
(Current/Filed)
400kts
Departed: 08-Feb-20 05:17 PM
Arrived: 08-Feb-20 05:51 PM
Distance/Time
Traveled:
142nm/0:34
Distance/Time
To Go:
Arrived

Flight Plot

Page will automatically refresh every two minutes.

Flight plan parsing failed; only flown route is shown


Map Options




Map Legend


Flown Route
Filed Route
Departure Airport
Arrival Airport
Navaid (VOR, NDB)
Fix

Horizontal Profiles

Position Reports

Time Latitude Longitude Heading Altitude Ground
Speed
08-Feb-20 16:53 37.363455 -121.923590 49 52ft 0kts
08-Feb-20 16:54 37.363455 -121.923590 49 52ft 0kts
08-Feb-20 16:55 37.363455 -121.923590 49 52ft 0kts
08-Feb-20 16:56 37.363455 -121.923590 49 52ft 0kts
08-Feb-20 16:57 37.363455 -121.923590 49 52ft 0kts
08-Feb-20 16:58 37.363455 -121.923590 49 52ft 0kts
08-Feb-20 16:59 37.363455 -121.923590 49 52ft 0kts
08-Feb-20 17:00 37.363455 -121.923590 49 52ft 0kts
08-Feb-20 17:01 37.363455 -121.923590 49 52ft 0kts
08-Feb-20 17:02 37.363455 -121.923590 49 52ft 0kts
08-Feb-20 17:03 37.363455 -121.923590 49 52ft 0kts
08-Feb-20 17:04 37.363455 -121.923590 49 52ft 0kts
08-Feb-20 17:05 37.363455 -121.923591 49 52ft 0kts
08-Feb-20 17:06 37.363163 -121.924020 60 52ft 2kts
08-Feb-20 17:07 37.363230 -121.924633 136 52ft 0kts
08-Feb-20 17:08 37.363284 -121.924690 139 52ft 0kts
08-Feb-20 17:09 37.363284 -121.924690 139 52ft 0kts
08-Feb-20 17:10 37.362262 -121.923569 138 53ft 10kts
08-Feb-20 17:11 37.359796 -121.920864 139 57ft 13kts
08-Feb-20 17:12 37.356828 -121.917597 139 60ft 14kts
08-Feb-20 17:13 37.354032 -121.914555 139 65ft 9kts
08-Feb-20 17:14 37.353104 -121.914466 227 65ft 0kts
08-Feb-20 17:15 37.352619 -121.915158 237 65ft 6kts
08-Feb-20 17:16 37.359571 -121.923250 318 58ft 141kts
08-Feb-20 17:17 37.395550 -121.960757 320 3106ft 195kts
08-Feb-20 17:18 37.448998 -121.951042 55 5954ft 278kts
08-Feb-20 17:19 37.424724 -121.860737 141 9401ft 323kts
08-Feb-20 17:20 37.345129 -121.791656 145 11498ft 386kts
08-Feb-20 17:21 37.250262 -121.709253 144 13032ft 436kts
08-Feb-20 17:22 37.161558 -121.601882 133 15257ft 450kts
08-Feb-20 17:23 37.087011 -121.474503 121 17298ft 460kts
08-Feb-20 17:24 37.016040 -121.340450 123 19287ft 467kts
08-Feb-20 17:25 36.944849 -121.206559 123 21007ft 473kts
08-Feb-20 17:26 36.871564 -121.069303 124 22330ft 485kts
08-Feb-20 17:27 36.796970 -120.930138 124 23060ft 497kts
08-Feb-20 17:28 36.706489 -120.798587 149 23046ft 504kts
08-Feb-20 17:29 36.577640 -120.751205 174 22341ft 468kts
08-Feb-20 17:30 36.452325 -120.726371 174 19920ft 451kts
08-Feb-20 17:31 36.331951 -120.702568 174 17668ft 431kts
08-Feb-20 17:32 36.216361 -120.679798 173 15330ft 416kts
08-Feb-20 17:33 36.104668 -120.661970 178 13062ft 398kts
08-Feb-20 17:34 35.996358 -120.653189 178 10985ft 378kts
08-Feb-20 17:35 35.898929 -120.645221 178 10266ft 329kts
08-Feb-20 17:36 35.812249 -120.638176 179 9313ft 302kts
08-Feb-20 17:37 35.729232 -120.631647 179 7906ft 296kts
08-Feb-20 17:38 35.649272 -120.634417 197 6539ft 284kts
08-Feb-20 17:39 35.573609 -120.658382 197 5259ft 276kts
08-Feb-20 17:40 35.504300 -120.680209 198 5029ft 240kts
08-Feb-20 17:41 35.440476 -120.700370 198 5033ft 223kts
08-Feb-20 17:42 35.382226 -120.718734 198 5029ft 215kts
08-Feb-20 17:43 35.330914 -120.735473 197 4524ft 175kts
08-Feb-20 17:44 35.282752 -120.735282 166 3701ft 177kts
08-Feb-20 17:45 35.241071 -120.702986 137 3279ft 180kts
08-Feb-20 17:46 35.207929 -120.657688 124 2705ft 178kts
08-Feb-20 17:47 35.179761 -120.608092 117 2052ft 174kts
08-Feb-20 17:48 35.200329 -120.583417 336 1480ft 122kts
08-Feb-20 17:49 35.221831 -120.613438 304 735ft 119kts
08-Feb-20 17:50 35.236511 -120.639543 305 221ft 8kts
08-Feb-20 17:51 35.237219 -120.638912 125 221ft 12kts
08-Feb-20 17:52 35.237684 -120.637163 27 221ft 7kts
08-Feb-20 17:53 35.238329 -120.637462 266 221ft 0kts
08-Feb-20 17:54 35.238329 -120.637462 266 221ft 0kts
08-Feb-20 17:57 35.238329 -120.637462 266 221ft 0kts
08-Feb-20 17:58 35.238329 -120.637462 266 221ft 0kts
08-Feb-20 17:59 35.238329 -120.637462 266 221ft 0kts
08-Feb-20 18:00 35.238329 -120.637462 266 221ft 0kts

Navigation Log

Ident Type
Flight plan parsing failed, navigation log unavailable